createdAt,value
2018-02-06T00:00:00.789Z,20.30
2018-02-06T00:02:28.354Z,23.20
2018-02-06T00:04:55.900Z,21.60
2018-02-06T00:07:24.248Z,21.42
2018-02-06T00:09:53.419Z,20.65
2018-02-06T00:12:21.757Z,20.73
2018-02-06T00:14:50.183Z,22.95
2018-02-06T00:17:17.726Z,14.40
2018-02-06T00:19:45.281Z,20.98
2018-02-06T00:22:14.803Z,20.62
2018-02-06T00:24:43.125Z,19.98
2018-02-06T00:27:10.688Z,22.83
2018-02-06T00:29:38.282Z,22.15
2018-02-06T00:32:05.839Z,21.60
2018-02-06T00:34:33.409Z,16.52
2018-02-06T00:37:00.968Z,21.85
2018-02-06T00:39:28.523Z,17.75
2018-02-06T00:41:56.085Z,24.12
2018-02-06T00:44:24.543Z,23.65
2018-02-06T00:46:52.132Z,20.65
2018-02-06T00:49:19.681Z,21.95
2018-02-06T00:51:47.426Z,21.87
2018-02-06T00:54:15.119Z,21.75
2018-02-06T00:56:43.410Z,22.75
2018-02-06T00:59:10.939Z,21.92
2018-02-06T01:01:38.515Z,23.67
2018-02-06T01:04:06.074Z,21.92
2018-02-06T01:06:34.575Z,21.80
2018-02-06T01:09:02.972Z,21.25
2018-02-06T01:11:30.620Z,22.67
2018-02-06T01:13:58.241Z,23.02
2018-02-06T01:16:25.839Z,19.87
2018-02-06T01:18:54.255Z,21.23
2018-02-06T01:21:23.136Z,22.60
2018-02-06T01:23:50.732Z,21.45
2018-02-06T01:26:18.288Z,24.75
2018-02-06T01:28:46.659Z,22.42
2018-02-06T01:31:15.010Z,22.98
2018-02-06T01:33:43.374Z,23.10
2018-02-06T01:36:11.707Z,24.05
2018-02-06T01:38:39.342Z,23.73
2018-02-06T01:41:06.908Z,22.40
2018-02-06T01:43:36.010Z,23.87
2018-02-06T01:46:04.324Z,20.40
2018-02-06T01:48:31.911Z,22.83
2018-02-06T01:51:00.231Z,23.02
2018-02-06T01:53:27.832Z,23.10
2018-02-06T01:55:55.382Z,23.10
2018-02-06T01:58:23.071Z,21.75
2018-02-06T02:00:51.400Z,22.45
2018-02-06T02:03:18.991Z,22.92
2018-02-06T02:05:46.533Z,20.85
2018-02-06T02:08:14.122Z,21.98
2018-02-06T02:10:41.690Z,22.30
2018-02-06T02:13:09.268Z,22.85
2018-02-06T02:15:36.856Z,22.87
2018-02-06T02:18:04.476Z,23.40
2018-02-06T02:20:32.822Z,19.80
2018-02-06T02:23:00.366Z,22.92
2018-02-06T02:25:28.718Z,22.05
2018-02-06T02:27:57.051Z,23.42
2018-02-06T02:30:24.635Z,22.92
2018-02-06T02:32:53.488Z,24.35
2018-02-06T02:35:21.097Z,23.12
2018-02-06T02:37:48.650Z,24.40
2018-02-06T02:40:16.214Z,23.15
2018-02-06T04:38:30.124Z,26.25
2018-02-06T04:40:57.684Z,25.77
2018-02-06T04:43:26.464Z,24.02
2018-02-06T04:45:54.070Z,25.00
2018-02-06T04:48:21.665Z,23.55
2018-02-06T04:50:49.297Z,25.85
2018-02-06T04:53:16.852Z,27.10
2018-02-06T04:55:44.431Z,24.10
2018-02-06T04:58:11.989Z,27.52
2018-02-06T05:00:39.555Z,24.92
2018-02-06T05:03:07.172Z,25.95
2018-02-06T05:05:35.464Z,24.50
2018-02-06T05:08:03.059Z,25.60
2018-02-06T05:10:30.650Z,26.20
2018-02-06T05:12:58.279Z,28.33
2018-02-06T05:15:26.588Z,22.45
2018-02-06T05:17:54.216Z,24.23
2018-02-06T05:20:23.005Z,25.85
2018-02-06T05:22:50.573Z,28.27
2018-02-06T05:25:18.919Z,27.70
2018-02-06T05:27:46.467Z,26.35
2018-02-06T05:30:14.067Z,29.00
2018-02-06T05:32:42.374Z,27.50
2018-02-06T05:35:09.925Z,26.75
2018-02-06T05:37:38.234Z,25.45
2018-02-06T05:40:05.860Z,25.98
2018-02-06T05:42:33.459Z,25.00
2018-02-06T05:45:01.007Z,25.90
2018-02-06T05:47:28.599Z,25.88
2018-02-06T05:49:56.148Z,27.00
2018-02-06T05:52:24.562Z,25.20
2018-02-06T05:54:53.482Z,26.85
2018-02-06T05:57:21.084Z,26.10
2018-02-06T05:59:49.421Z,26.75
2018-02-06T06:02:17.136Z,28.30
2018-02-06T06:04:44.692Z,25.83
2018-02-06T06:07:12.245Z,26.15
2018-02-06T06:09:39.934Z,23.52
2018-02-06T06:12:07.795Z,27.05
2018-02-06T06:14:35.498Z,26.85
2018-02-06T06:17:04.095Z,24.63
2018-02-06T06:19:31.720Z,27.10
2018-02-06T06:22:00.048Z,24.92
2018-02-06T06:24:27.622Z,26.37
2018-02-06T06:26:55.935Z,27.60
2018-02-06T06:29:23.540Z,28.00
2018-02-06T06:31:51.125Z,27.00
2018-02-06T06:34:19.527Z,26.70
2018-02-06T06:36:47.150Z,26.05
2018-02-06T06:39:14.705Z,27.58
2018-02-06T06:41:42.308Z,27.30
2018-02-06T06:44:09.952Z,28.85
2018-02-06T06:46:38.338Z,28.80
2018-02-06T06:49:06.109Z,21.55
2018-02-06T06:51:33.771Z,27.40
2018-02-06T06:54:01.334Z,28.65
2018-02-06T06:56:28.909Z,26.45
2018-02-06T06:58:56.546Z,23.60
2018-02-06T07:01:24.177Z,28.25
2018-02-06T07:03:51.712Z,28.83
2018-02-06T07:06:19.386Z,24.15
2018-02-06T07:08:47.049Z,28.23
2018-02-06T07:11:14.689Z,26.90
2018-02-06T07:13:42.302Z,23.83
2018-02-06T07:16:09.931Z,29.02
2018-02-06T07:18:37.518Z,27.40
2018-02-06T07:21:05.133Z,26.25
2018-02-06T07:23:32.760Z,27.08
2018-02-06T07:26:00.372Z,26.33
2018-02-06T07:28:27.970Z,25.48
2018-02-06T07:30:55.560Z,25.60
2018-02-06T07:33:23.807Z,25.33
2018-02-06T07:35:51.412Z,27.52
2018-02-06T07:38:19.062Z,25.88
2018-02-06T07:40:46.738Z,27.52
2018-02-06T07:43:14.384Z,25.92
2018-02-06T07:45:42.852Z,28.00
2018-02-06T07:48:10.436Z,30.10
2018-02-06T07:50:38.134Z,28.12
2018-02-06T07:53:05.750Z,29.08
2018-02-06T07:55:33.392Z,29.23
2018-02-06T07:58:01.168Z,27.37
2018-02-06T08:00:28.807Z,29.25
2018-02-06T08:02:56.376Z,27.80
2018-02-06T08:05:25.463Z,28.38
2018-02-06T08:07:54.011Z,28.62
2018-02-06T08:10:22.888Z,28.90
2018-02-06T08:12:51.234Z,25.90
2018-02-06T08:15:18.868Z,26.92
2018-02-06T08:17:47.065Z,27.58
2018-02-06T08:20:15.969Z,25.92
2018-02-06T08:22:43.568Z,27.60
2018-02-06T08:25:11.222Z,29.60
2018-02-06T08:27:39.575Z,28.20
2018-02-06T08:30:08.089Z,25.62
2018-02-06T08:32:35.782Z,27.02
2018-02-06T08:35:03.450Z,26.60
2018-02-06T08:37:31.937Z,22.60
2018-02-06T08:39:59.644Z,26.92
2018-02-06T08:42:27.302Z,28.38
2018-02-06T08:44:54.929Z,27.83
2018-02-06T08:47:24.520Z,24.95
2018-02-06T08:49:52.171Z,28.23
2018-02-06T08:52:20.607Z,25.30
2018-02-06T08:54:48.268Z,27.73
2018-02-06T08:57:16.554Z,27.10
2018-02-06T08:59:44.964Z,27.75
2018-02-06T09:02:12.672Z,23.80
2018-02-06T09:04:40.440Z,27.52
2018-02-06T09:07:08.086Z,24.50
2018-02-06T09:09:36.497Z,25.00
2018-02-06T09:12:04.180Z,26.58
2018-02-06T09:14:32.305Z,25.02
2018-02-06T09:16:59.996Z,24.63
2018-02-06T09:19:27.755Z,25.92
2018-02-06T09:21:56.138Z,26.87
2018-02-06T09:24:25.001Z,27.10
2018-02-06T09:26:54.243Z,24.83
2018-02-06T09:29:22.068Z,22.45
2018-02-06T09:31:49.698Z,28.80
2018-02-06T09:34:17.629Z,30.17
2018-02-06T09:36:45.259Z,24.33
2018-02-06T09:39:12.930Z,28.40
2018-02-06T09:41:40.800Z,25.27
2018-02-06T09:44:08.514Z,24.12
2018-02-06T09:46:36.122Z,23.42
2018-02-06T09:49:04.007Z,25.80
2018-02-06T09:51:31.677Z,27.58
2018-02-06T09:53:59.290Z,23.65
2018-02-06T09:56:27.879Z,24.87
2018-02-06T09:58:55.535Z,25.88
2018-02-06T10:01:23.263Z,23.38
2018-02-06T10:03:51.674Z,25.12
2018-02-06T10:06:19.881Z,24.23
2018-02-06T10:08:47.485Z,25.77
2018-02-06T10:11:15.156Z,23.95
2018-02-06T10:13:43.553Z,24.25
2018-02-06T10:16:11.155Z,24.05
2018-02-06T10:18:39.578Z,29.35
2018-02-06T10:21:07.282Z,24.90
2018-02-06T10:23:34.974Z,24.42
2018-02-06T10:26:02.864Z,26.52
2018-02-06T10:28:30.574Z,27.15
2018-02-06T10:30:58.212Z,21.35
2018-02-06T10:33:26.292Z,24.73
2018-02-06T10:35:54.117Z,21.67
2018-02-06T10:38:21.725Z,23.87
2018-02-06T10:40:49.356Z,27.10
2018-02-06T10:43:16.955Z,24.13
2018-02-06T10:45:44.633Z,22.75
2018-02-06T10:48:12.278Z,21.00
2018-02-06T10:50:39.984Z,18.33
2018-02-06T10:53:07.698Z,19.30
2018-02-06T10:55:35.458Z,17.17
2018-02-06T10:58:03.050Z,21.27
2018-02-06T11:00:31.614Z,24.20
2018-02-06T11:02:59.321Z,22.37
2018-02-06T11:05:27.071Z,21.63
2018-02-06T11:07:54.643Z,23.03
2018-02-06T11:10:22.925Z,25.20
2018-02-06T11:12:50.534Z,22.87
2018-02-06T11:15:18.434Z,21.27
2018-02-06T11:17:46.912Z,24.07
2018-02-06T11:20:14.499Z,23.77
2018-02-06T11:22:42.184Z,23.40
2018-02-06T11:25:10.555Z,25.13
2018-02-06T11:27:38.910Z,23.33
2018-02-06T11:30:06.667Z,21.30
2018-02-06T11:32:34.271Z,21.47
2018-02-06T11:35:01.829Z,19.37
2018-02-06T11:37:29.452Z,21.33
2018-02-06T11:39:57.049Z,19.53
2018-02-06T11:42:25.088Z,16.60
2018-02-06T11:44:52.847Z,18.47
2018-02-06T11:47:21.419Z,17.80
2018-02-06T11:49:49.036Z,18.27
2018-02-06T11:52:17.745Z,18.80
2018-02-06T11:54:45.502Z,18.80
2018-02-06T11:57:13.110Z,20.30
2018-02-06T11:59:41.429Z,18.67
2018-02-06T12:02:09.033Z,19.93
2018-02-06T12:04:36.660Z,20.73
2018-02-06T12:07:05.052Z,20.80
2018-02-06T12:09:32.617Z,21.13
2018-02-06T12:12:00.303Z,22.00
2018-02-06T12:14:28.076Z,24.20
2018-02-06T12:16:55.743Z,23.97
2018-02-06T12:19:24.891Z,23.27
2018-02-06T12:21:52.544Z,19.60
2018-02-06T12:24:20.414Z,19.63
2018-02-06T12:26:48.011Z,20.80
2018-02-06T12:29:15.601Z,21.77
2018-02-06T12:31:43.968Z,21.95
2018-02-06T12:34:12.332Z,23.35
2018-02-06T12:36:40.083Z,23.60
2018-02-06T12:39:07.686Z,20.80
2018-02-06T12:41:35.225Z,23.00
2018-02-06T12:44:02.971Z,21.33
2018-02-06T12:46:30.630Z,22.42
2018-02-06T12:48:58.231Z,21.08
2018-02-06T12:51:26.183Z,25.73
2018-02-06T12:53:54.570Z,23.35
2018-02-06T12:56:22.789Z,23.95
2018-02-06T12:58:50.466Z,23.05
2018-02-06T13:01:18.383Z,22.87
2018-02-06T13:03:46.863Z,23.85
2018-02-06T13:06:15.430Z,22.73
2018-02-06T13:08:43.836Z,23.50
2018-02-06T13:11:11.470Z,24.45
2018-02-06T13:13:39.195Z,24.50
2018-02-06T13:16:07.570Z,20.77
2018-02-06T13:18:35.215Z,24.55
2018-02-06T13:21:02.960Z,24.17
2018-02-06T13:23:30.564Z,24.15
2018-02-06T13:25:59.129Z,22.62
2018-02-06T13:28:26.902Z,24.63
2018-02-06T13:30:55.340Z,22.13
2018-02-06T13:33:23.048Z,22.10
2018-02-06T13:35:50.775Z,23.92
2018-02-06T13:38:18.415Z,23.10
2018-02-06T13:40:46.097Z,23.17
2018-02-06T13:43:13.827Z,25.00
2018-02-06T13:45:41.534Z,23.42
2018-02-06T13:48:09.970Z,22.20
2018-02-06T13:50:37.680Z,24.42
2018-02-06T13:53:05.298Z,22.87
2018-02-06T13:55:33.776Z,24.42
2018-02-06T13:58:01.511Z,24.73
2018-02-06T14:00:29.917Z,25.27
2018-02-06T14:02:57.802Z,24.65
2018-02-06T14:05:26.566Z,24.10
2018-02-06T14:07:54.215Z,20.85
2018-02-06T14:10:22.108Z,25.30
2018-02-06T14:12:49.799Z,25.05
2018-02-06T14:15:18.372Z,23.42
2018-02-06T14:17:46.770Z,22.58
2018-02-06T14:20:14.618Z,20.08
2018-02-06T14:22:42.345Z,23.15
2018-02-06T14:25:10.689Z,21.48
2018-02-06T14:27:39.243Z,22.70
2018-02-06T14:30:07.915Z,22.70
2018-02-06T14:32:36.246Z,17.83
2018-02-06T14:35:03.969Z,21.92
2018-02-06T14:37:31.617Z,22.55
2018-02-06T14:39:59.311Z,22.70
2018-02-06T14:42:27.738Z,21.55
2018-02-06T14:44:55.326Z,24.37
2018-02-06T14:47:23.497Z,21.20
2018-02-06T14:49:51.306Z,21.37
2018-02-06T14:52:19.201Z,21.48
2018-02-06T14:54:47.060Z,21.33
2018-02-06T14:57:14.699Z,21.45
2018-02-06T14:59:43.050Z,21.05
2018-02-06T15:02:11.539Z,21.15
2018-02-06T15:04:39.095Z,19.75
2018-02-06T15:07:06.743Z,21.60
2018-02-06T15:09:34.621Z,20.48
2018-02-06T15:12:02.531Z,22.23
2018-02-06T15:14:30.130Z,22.35
2018-02-06T15:16:58.532Z,22.70
2018-02-06T15:19:26.089Z,20.88
2018-02-06T15:21:54.481Z,19.73
2018-02-06T15:24:22.865Z,17.50
2018-02-06T15:26:50.428Z,20.45
2018-02-06T15:29:18.076Z,21.02
2018-02-06T15:31:45.946Z,19.80
2018-02-06T15:34:14.370Z,16.85
2018-02-06T15:36:41.957Z,19.48
2018-02-06T15:39:09.660Z,20.65
2018-02-06T15:41:37.454Z,20.73
2018-02-06T15:44:05.832Z,21.08
2018-02-06T15:46:34.398Z,17.50
2018-02-06T15:49:02.056Z,19.42
2018-02-06T15:51:29.733Z,19.83
2018-02-06T15:53:57.528Z,18.95
2018-02-06T15:56:25.905Z,14.95
2018-02-06T15:58:53.933Z,20.08
2018-02-06T16:01:23.231Z,18.10
2018-02-06T16:03:50.853Z,18.73
2018-02-06T16:06:18.463Z,17.92
2018-02-06T16:08:46.127Z,15.57
2018-02-06T16:11:13.816Z,16.42
2018-02-06T16:13:41.504Z,21.58
2018-02-06T16:16:09.263Z,18.42
2018-02-06T16:18:37.624Z,17.02
2018-02-06T16:21:05.279Z,18.40
2018-02-06T16:23:32.953Z,19.10
2018-02-06T16:26:00.563Z,18.75
2018-02-06T16:28:28.195Z,17.80
2018-02-06T16:30:56.648Z,18.92
2018-02-06T16:33:24.234Z,19.02
2018-02-06T16:35:53.005Z,17.15
2018-02-06T16:38:20.674Z,19.25
2018-02-06T16:40:48.342Z,20.12
2018-02-06T16:43:16.776Z,17.40
2018-02-06T16:45:44.676Z,18.58
2018-02-06T16:48:13.121Z,17.92
2018-02-06T16:50:41.581Z,18.95
2018-02-06T16:53:10.058Z,17.95
2018-02-06T16:55:38.511Z,18.52
2018-02-06T16:58:06.234Z,18.80
2018-02-06T17:00:34.783Z,20.83
2018-02-06T17:03:02.465Z,19.50
2018-02-06T17:05:30.056Z,17.52
2018-02-06T17:07:57.685Z,16.48
2018-02-06T17:10:25.287Z,18.90
2018-02-06T17:12:53.431Z,19.37
2018-02-06T17:15:22.113Z,19.30
2018-02-06T17:17:49.729Z,19.05
2018-02-06T17:20:17.485Z,19.10
2018-02-06T17:22:45.914Z,20.02
2018-02-06T17:25:13.470Z,20.85
2018-02-06T17:27:41.049Z,18.42
2018-02-06T17:30:08.719Z,20.70
2018-02-06T17:32:39.217Z,19.55
2018-02-06T17:35:07.572Z,22.67
2018-02-06T17:37:35.173Z,19.67
2018-02-06T17:40:03.350Z,19.45
2018-02-06T17:42:30.938Z,20.05
2018-02-06T17:44:58.669Z,21.02
2018-02-06T17:47:26.335Z,23.15
2018-02-06T17:49:53.953Z,20.58
2018-02-06T17:52:21.640Z,21.87
2018-02-06T17:54:49.218Z,22.30
2018-02-06T17:57:17.554Z,21.25
2018-02-06T17:59:45.161Z,21.20
2018-02-06T18:02:12.771Z,21.55
2018-02-06T18:04:41.115Z,19.08
2018-02-06T18:07:08.709Z,19.27
2018-02-06T18:09:37.016Z,23.35
2018-02-06T18:12:04.560Z,23.50
2018-02-06T18:14:32.162Z,24.90
2018-02-06T18:17:00.500Z,24.25
2018-02-06T18:19:28.070Z,20.42
2018-02-06T18:21:56.519Z,22.20
2018-02-06T18:24:24.072Z,23.52
2018-02-06T18:26:51.657Z,23.48
2018-02-06T18:29:19.290Z,25.23
2018-02-06T18:31:46.866Z,21.92
2018-02-06T18:34:14.431Z,24.02
2018-02-06T18:36:42.028Z,21.60
2018-02-06T18:39:09.599Z,22.83
2018-02-06T18:41:37.231Z,25.45
2018-02-06T18:44:04.853Z,23.30
2018-02-06T18:46:32.410Z,22.67
2018-02-06T18:49:00.825Z,25.48
2018-02-06T18:51:29.502Z,23.40
2018-02-06T18:53:57.061Z,23.92
2018-02-06T18:56:25.496Z,25.52
2018-02-06T18:58:53.191Z,24.42
2018-02-06T19:01:20.818Z,23.05
2018-02-06T19:03:49.156Z,22.67
2018-02-06T19:06:17.511Z,25.85
2018-02-06T19:08:45.115Z,24.42
2018-02-06T19:11:12.701Z,24.85
2018-02-06T19:13:41.026Z,24.80
2018-02-06T19:16:08.588Z,26.27
2018-02-06T19:18:36.160Z,24.70
2018-02-06T19:21:03.740Z,22.20
2018-02-06T19:23:31.281Z,23.65
2018-02-06T19:25:58.931Z,26.40
2018-02-06T19:28:26.489Z,25.25
2018-02-06T19:30:54.034Z,25.08
2018-02-06T19:33:22.480Z,24.30
2018-02-06T19:35:50.014Z,25.10
2018-02-06T19:38:18.351Z,22.83
2018-02-06T19:40:46.720Z,23.33
2018-02-06T19:43:14.290Z,25.27
2018-02-06T19:45:41.844Z,24.02
2018-02-06T19:48:09.446Z,24.12
2018-02-06T19:50:37.077Z,26.12
2018-02-06T19:53:04.624Z,26.00
2018-02-06T19:55:32.210Z,25.52
2018-02-06T19:58:00.583Z,24.60
2018-02-06T20:00:28.183Z,25.52
2018-02-06T20:02:55.791Z,24.87
2018-02-06T20:05:24.167Z,24.55
2018-02-06T20:07:53.823Z,25.73
2018-02-06T20:10:22.820Z,26.92
2018-02-06T20:12:50.438Z,25.88
2018-02-06T20:15:18.757Z,26.87
2018-02-06T20:17:46.398Z,27.02
2018-02-06T20:20:14.797Z,25.67
2018-02-06T20:22:42.361Z,22.70
2018-02-06T20:25:10.797Z,25.10
2018-02-06T20:27:38.401Z,29.87
2018-02-06T20:30:05.989Z,26.77
2018-02-06T20:32:33.591Z,26.17
2018-02-06T20:35:01.238Z,25.98
2018-02-06T20:37:28.791Z,25.62
2018-02-06T20:39:56.473Z,26.15
2018-02-06T20:42:24.047Z,26.33
2018-02-06T20:44:51.584Z,26.95
2018-02-06T20:47:19.224Z,27.25
2018-02-06T20:49:46.824Z,25.58
2018-02-06T20:52:14.428Z,25.02
2018-02-06T20:54:42.861Z,25.30
2018-02-06T20:57:10.448Z,26.65
2018-02-06T20:59:38.004Z,25.90
2018-02-06T21:02:05.615Z,26.73
2018-02-06T21:04:33.167Z,23.58
2018-02-06T21:07:01.533Z,24.12
2018-02-06T21:09:29.146Z,24.63
2018-02-06T21:11:56.737Z,25.35
2018-02-06T21:14:24.352Z,27.00
2018-02-06T21:16:51.979Z,24.00
2018-02-06T21:19:19.568Z,24.05
2018-02-06T21:21:47.170Z,25.98
2018-02-06T21:24:14.769Z,23.70
2018-02-06T21:26:42.344Z,23.15
2018-02-06T21:29:09.966Z,26.65
2018-02-06T21:31:37.579Z,22.90
2018-02-06T21:34:05.242Z,25.20
2018-02-06T21:36:32.804Z,25.48
2018-02-06T21:39:00.447Z,27.08
2018-02-06T21:41:28.381Z,26.17
2018-02-06T21:43:55.931Z,26.58
2018-02-06T21:46:23.508Z,25.45
2018-02-06T21:48:51.232Z,27.08
2018-02-06T21:51:18.848Z,27.13
2018-02-06T21:53:46.399Z,24.75
2018-02-06T21:56:13.965Z,25.08
2018-02-06T21:58:42.316Z,26.70
2018-02-06T22:01:09.869Z,28.87
2018-02-06T22:03:37.417Z,28.85
2018-02-06T22:06:05.000Z,29.05
2018-02-06T22:08:32.564Z,24.95
2018-02-06T22:11:00.290Z,29.20
2018-02-06T22:13:28.740Z,29.37
2018-02-06T22:15:57.343Z,29.83
2018-02-06T22:18:29.561Z,28.80
2018-02-06T22:20:58.128Z,29.00
2018-02-06T22:23:25.694Z,28.23
2018-02-06T22:25:54.012Z,29.20
2018-02-06T22:28:21.604Z,28.77
2018-02-06T22:30:49.149Z,28.42
2018-02-06T22:33:17.495Z,29.23
2018-02-06T22:35:45.033Z,28.80
2018-02-06T22:38:12.601Z,28.85
2018-02-06T22:40:40.188Z,24.23
2018-02-06T22:43:07.774Z,29.27
2018-02-06T22:45:36.098Z,29.40
2018-02-06T22:48:03.738Z,29.40
2018-02-06T22:50:32.313Z,30.40
2018-02-06T22:53:00.880Z,28.62
2018-02-06T22:55:28.468Z,29.05
2018-02-06T22:57:56.058Z,28.23
2018-02-06T23:00:23.629Z,28.75
2018-02-06T23:02:51.214Z,29.55
2018-02-06T23:05:18.764Z,31.15
2018-02-06T23:07:46.307Z,30.02
2018-02-06T23:10:13.905Z,30.62
2018-02-06T23:12:41.463Z,28.95
2018-02-06T23:15:08.992Z,30.42
2018-02-06T23:17:36.567Z,30.30
2018-02-06T23:20:04.132Z,28.73
2018-02-06T23:22:32.439Z,31.50
2018-02-06T23:25:00.040Z,28.80
2018-02-06T23:27:27.589Z,30.08
2018-02-06T23:29:55.154Z,28.27
2018-02-06T23:32:22.835Z,29.50
2018-02-06T23:34:50.396Z,30.42
2018-02-06T23:37:17.992Z,27.17
2018-02-06T23:39:45.551Z,30.35
2018-02-06T23:42:13.168Z,30.75
2018-02-06T23:44:40.812Z,29.77
2018-02-06T23:47:08.374Z,30.17
2018-02-06T23:49:36.696Z,31.00
2018-02-06T23:52:05.052Z,29.90
2018-02-06T23:54:32.605Z,31.90
2018-02-06T23:57:00.252Z,31.83
2018-02-06T23:59:27.826Z,30.45
